sensor_id;sensor_type;location;lat;lon;timestamp;temperature;humidity
21590;DHT22;10957;50.968;6.828;2023-06-14T00:01:19;17.40;1.00
21590;DHT22;10957;50.968;6.828;2023-06-14T00:06:21;17.40;1.00
21590;DHT22;10957;50.968;6.828;2023-06-14T00:11:22;17.20;1.00
21590;DHT22;10957;50.968;6.828;2023-06-14T00:16:24;17.20;1.00
21590;DHT22;10957;50.968;6.828;2023-06-14T00:21:25;17.00;1.00
21590;DHT22;10957;50.968;6.828;2023-06-14T00:26:30;17.00;1.00
21590;DHT22;10957;50.968;6.828;2023-06-14T00:31:34;16.80;1.00
21590;DHT22;10957;50.968;6.828;2023-06-14T00:36:35;16.60;1.00
21590;DHT22;10957;50.968;6.828;2023-06-14T00:41:37;16.50;1.00
21590;DHT22;10957;50.968;6.828;2023-06-14T00:46:38;16.50;1.00
21590;DHT22;10957;50.968;6.828;2023-06-14T00:51:39;16.40;1.00
21590;DHT22;10957;50.968;6.828;2023-06-14T00:56:40;16.20;1.00
21590;DHT22;10957;50.968;6.828;2023-06-14T01:01:43;16.20;1.00
21590;DHT22;10957;50.968;6.828;2023-06-14T01:07:02;16.10;1.00
21590;DHT22;10957;50.968;6.828;2023-06-14T01:12:35;15.90;1.00
21590;DHT22;10957;50.968;6.828;2023-06-14T01:17:39;16.00;1.00
21590;DHT22;10957;50.968;6.828;2023-06-14T01:23:01;15.90;1.00
21590;DHT22;10957;50.968;6.828;2023-06-14T01:28:06;15.90;1.00
21590;DHT22;10957;50.968;6.828;2023-06-14T01:33:16;15.80;1.00
21590;DHT22;10957;50.968;6.828;2023-06-14T01:38:21;15.70;1.00
21590;DHT22;10957;50.968;6.828;2023-06-14T01:43:24;15.60;1.00
21590;DHT22;10957;50.968;6.828;2023-06-14T01:48:26;15.60;1.00
21590;DHT22;10957;50.968;6.828;2023-06-14T01:53:28;15.50;1.00
21590;DHT22;10957;50.968;6.828;2023-06-14T01:58:29;15.40;1.00
21590;DHT22;10957;50.968;6.828;2023-06-14T02:03:32;15.30;1.00
21590;DHT22;10957;50.968;6.828;2023-06-14T02:08:34;15.00;1.00
21590;DHT22;10957;50.968;6.828;2023-06-14T02:13:35;14.90;1.00
21590;DHT22;10957;50.968;6.828;2023-06-14T02:18:37;14.80;1.00
21590;DHT22;10957;50.968;6.828;2023-06-14T02:23:38;14.80;1.00
21590;DHT22;10957;50.968;6.828;2023-06-14T02:28:39;14.80;1.00
21590;DHT22;10957;50.968;6.828;2023-06-14T02:33:43;14.70;1.00
21590;DHT22;10957;50.968;6.828;2023-06-14T02:38:45;14.60;1.00
21590;DHT22;10957;50.968;6.828;2023-06-14T02:43:46;14.60;1.00
21590;DHT22;10957;50.968;6.828;2023-06-14T02:48:47;14.50;1.00
21590;DHT22;10957;50.968;6.828;2023-06-14T02:53:49;14.40;1.00
21590;DHT22;10957;50.968;6.828;2023-06-14T02:58:51;14.30;1.00
21590;DHT22;10957;50.968;6.828;2023-06-14T03:03:53;14.30;1.00
21590;DHT22;10957;50.968;6.828;2023-06-14T03:08:55;14.20;1.00
21590;DHT22;10957;50.968;6.828;2023-06-14T03:14:00;14.10;1.00
21590;DHT22;10957;50.968;6.828;2023-06-14T03:19:02;13.90;1.00
21590;DHT22;10957;50.968;6.828;2023-06-14T03:24:06;14.00;1.00
21590;DHT22;10957;50.968;6.828;2023-06-14T03:29:09;13.90;1.00
21590;DHT22;10957;50.968;6.828;2023-06-14T03:34:11;13.90;1.00
21590;DHT22;10957;50.968;6.828;2023-06-14T03:39:13;13.80;1.00
21590;DHT22;10957;50.968;6.828;2023-06-14T03:44:16;13.90;1.00
21590;DHT22;10957;50.968;6.828;2023-06-14T03:49:18;13.80;1.00
21590;DHT22;10957;50.968;6.828;2023-06-14T03:54:20;13.70;1.00
21590;DHT22;10957;50.968;6.828;2023-06-14T03:59:24;13.90;1.00
21590;DHT22;10957;50.968;6.828;2023-06-14T04:04:27;13.90;1.00
21590;DHT22;10957;50.968;6.828;2023-06-14T04:09:31;14.00;1.00
21590;DHT22;10957;50.968;6.828;2023-06-14T04:14:32;14.10;1.00
21590;DHT22;10957;50.968;6.828;2023-06-14T04:19:35;14.20;1.00
21590;DHT22;10957;50.968;6.828;2023-06-14T04:24:37;14.20;1.00
21590;DHT22;10957;50.968;6.828;2023-06-14T04:29:39;14.10;1.00
21590;DHT22;10957;50.968;6.828;2023-06-14T04:34:45;14.10;1.00
21590;DHT22;10957;50.968;6.828;2023-06-14T04:39:47;13.90;1.00
21590;DHT22;10957;50.968;6.828;2023-06-14T04:44:49;14.30;1.00
21590;DHT22;10957;50.968;6.828;2023-06-14T04:49:51;14.50;1.00
21590;DHT22;10957;50.968;6.828;2023-06-14T04:54:55;14.60;1.00
21590;DHT22;10957;50.968;6.828;2023-06-14T04:59:58;14.70;1.00
21590;DHT22;10957;50.968;6.828;2023-06-14T05:05:03;14.80;1.10
21590;DHT22;10957;50.968;6.828;2023-06-14T05:10:06;15.00;1.00
21590;DHT22;10957;50.968;6.828;2023-06-14T05:15:08;15.20;2.30
21590;DHT22;10957;50.968;6.828;2023-06-14T05:20:10;15.50;29.40
21590;DHT22;10957;50.968;6.828;2023-06-14T05:25:11;15.70;61.50
21590;DHT22;10957;50.968;6.828;2023-06-14T05:30:14;16.20;91.00
21590;DHT22;10957;50.968;6.828;2023-06-14T05:35:15;16.40;71.30
21590;DHT22;10957;50.968;6.828;2023-06-14T05:40:17;16.60;33.30
21590;DHT22;10957;50.968;6.828;2023-06-14T05:45:18;17.10;1.00
21590;DHT22;10957;50.968;6.828;2023-06-14T05:50:20;17.50;1.00
21590;DHT22;10957;50.968;6.828;2023-06-14T05:55:21;17.80;1.00
21590;DHT22;10957;50.968;6.828;2023-06-14T06:00:22;18.20;1.00
21590;DHT22;10957;50.968;6.828;2023-06-14T06:05:24;18.30;1.00
21590;DHT22;10957;50.968;6.828;2023-06-14T06:10:26;19.00;1.00
21590;DHT22;10957;50.968;6.828;2023-06-14T06:15:27;19.70;1.00
21590;DHT22;10957;50.968;6.828;2023-06-14T06:20:29;20.10;1.00
21590;DHT22;10957;50.968;6.828;2023-06-14T06:25:32;20.70;1.00
21590;DHT22;10957;50.968;6.828;2023-06-14T06:30:33;21.40;1.00
21590;DHT22;10957;50.968;6.828;2023-06-14T06:35:34;21.50;1.00
21590;DHT22;10957;50.968;6.828;2023-06-14T06:40:36;22.10;1.00
21590;DHT22;10957;50.968;6.828;2023-06-14T06:45:37;22.70;1.00
21590;DHT22;10957;50.968;6.828;2023-06-14T06:50:39;22.80;1.00
21590;DHT22;10957;50.968;6.828;2023-06-14T06:55:40;23.30;1.00
21590;DHT22;10957;50.968;6.828;2023-06-14T07:00:41;23.50;1.00
21590;DHT22;10957;50.968;6.828;2023-06-14T07:05:42;23.40;1.00
21590;DHT22;10957;50.968;6.828;2023-06-14T07:10:44;23.20;1.00
21590;DHT22;10957;50.968;6.828;2023-06-14T07:15:45;24.30;1.00
21590;DHT22;10957;50.968;6.828;2023-06-14T07:20:46;24.80;1.00
21590;DHT22;10957;50.968;6.828;2023-06-14T07:25:49;24.90;1.00
21590;DHT22;10957;50.968;6.828;2023-06-14T07:30:50;25.00;1.00
21590;DHT22;10957;50.968;6.828;2023-06-14T07:35:51;25.10;1.00
21590;DHT22;10957;50.968;6.828;2023-06-14T07:40:54;25.20;1.00
21590;DHT22;10957;50.968;6.828;2023-06-14T07:45:55;25.90;1.00
21590;DHT22;10957;50.968;6.828;2023-06-14T07:50:58;25.80;1.00
21590;DHT22;10957;50.968;6.828;2023-06-14T07:55:59;25.10;1.00
21590;DHT22;10957;50.968;6.828;2023-06-14T08:01:01;26.30;1.00
21590;DHT22;10957;50.968;6.828;2023-06-14T08:06:07;26.80;1.00
21590;DHT22;10957;50.968;6.828;2023-06-14T08:11:08;26.50;1.00
21590;DHT22;10957;50.968;6.828;2023-06-14T08:16:09;27.10;1.00
21590;DHT22;10957;50.968;6.828;2023-06-14T08:21:11;26.40;1.00
21590;DHT22;10957;50.968;6.828;2023-06-14T08:26:14;26.40;1.00
21590;DHT22;10957;50.968;6.828;2023-06-14T08:31:16;26.50;1.00
21590;DHT22;10957;50.968;6.828;2023-06-14T08:36:17;26.60;1.00
21590;DHT22;10957;50.968;6.828;2023-06-14T08:41:22;26.50;1.00
21590;DHT22;10957;50.968;6.828;2023-06-14T08:46:26;26.80;1.00
21590;DHT22;10957;50.968;6.828;2023-06-14T08:51:31;26.60;1.00
21590;DHT22;10957;50.968;6.828;2023-06-14T08:56:37;27.10;1.00
21590;DHT22;10957;50.968;6.828;2023-06-14T09:01:39;26.90;1.00
21590;DHT22;10957;50.968;6.828;2023-06-14T09:06:41;27.10;1.00
21590;DHT22;10957;50.968;6.828;2023-06-14T09:11:42;27.00;1.00
21590;DHT22;10957;50.968;6.828;2023-06-14T09:16:44;26.70;1.00
21590;DHT22;10957;50.968;6.828;2023-06-14T09:21:47;27.10;1.00
21590;DHT22;10957;50.968;6.828;2023-06-14T09:26:51;27.30;1.00
21590;DHT22;10957;50.968;6.828;2023-06-14T09:31:52;27.10;1.00
21590;DHT22;10957;50.968;6.828;2023-06-14T09:36:54;27.60;1.00
21590;DHT22;10957;50.968;6.828;2023-06-14T09:41:55;27.60;1.00
21590;DHT22;10957;50.968;6.828;2023-06-14T09:46:57;26.90;1.00
21590;DHT22;10957;50.968;6.828;2023-06-14T09:51:59;26.70;1.00
21590;DHT22;10957;50.968;6.828;2023-06-14T09:57:02;27.00;1.00
21590;DHT22;10957;50.968;6.828;2023-06-14T10:02:09;26.40;1.00
21590;DHT22;10957;50.968;6.828;2023-06-14T10:07:14;26.10;1.00
21590;DHT22;10957;50.968;6.828;2023-06-14T10:12:19;26.30;1.00
21590;DHT22;10957;50.968;6.828;2023-06-14T10:22:35;26.20;1.00
21590;DHT22;10957;50.968;6.828;2023-06-14T10:27:44;26.50;1.00
21590;DHT22;10957;50.968;6.828;2023-06-14T10:33:06;26.20;1.00
21590;DHT22;10957;50.968;6.828;2023-06-14T10:38:10;26.10;1.00
21590;DHT22;10957;50.968;6.828;2023-06-14T10:43:24;26.10;1.00
21590;DHT22;10957;50.968;6.828;2023-06-14T10:48:29;26.10;1.00
21590;DHT22;10957;50.968;6.828;2023-06-14T10:53:40;26.00;1.00
21590;DHT22;10957;50.968;6.828;2023-06-14T10:58:41;25.40;1.00
21590;DHT22;10957;50.968;6.828;2023-06-14T11:03:52;25.60;1.00
21590;DHT22;10957;50.968;6.828;2023-06-14T11:09:12;25.80;1.00
21590;DHT22;10957;50.968;6.828;2023-06-14T11:14:20;25.40;1.00
21590;DHT22;10957;50.968;6.828;2023-06-14T11:19:22;25.50;1.00
21590;DHT22;10957;50.968;6.828;2023-06-14T11:24:23;25.40;1.00
21590;DHT22;10957;50.968;6.828;2023-06-14T11:29:25;25.30;1.00
21590;DHT22;10957;50.968;6.828;2023-06-14T11:34:26;25.20;1.00
21590;DHT22;10957;50.968;6.828;2023-06-14T11:39:29;25.60;1.00
21590;DHT22;10957;50.968;6.828;2023-06-14T11:44:31;25.60;1.00
21590;DHT22;10957;50.968;6.828;2023-06-14T11:49:36;25.80;1.00
21590;DHT22;10957;50.968;6.828;2023-06-14T11:54:38;25.90;1.00
21590;DHT22;10957;50.968;6.828;2023-06-14T11:59:41;26.10;1.00
21590;DHT22;10957;50.968;6.828;2023-06-14T12:04:43;25.80;1.00
21590;DHT22;10957;50.968;6.828;2023-06-14T12:14:55;25.60;1.00
21590;DHT22;10957;50.968;6.828;2023-06-14T12:19:57;25.70;1.00
21590;DHT22;10957;50.968;6.828;2023-06-14T12:24:58;26.00;1.00
21590;DHT22;10957;50.968;6.828;2023-06-14T12:30:01;26.20;1.00
21590;DHT22;10957;50.968;6.828;2023-06-14T12:35:05;25.90;1.00
21590;DHT22;10957;50.968;6.828;2023-06-14T12:40:07;25.80;1.00
21590;DHT22;10957;50.968;6.828;2023-06-14T12:45:10;25.40;1.00
21590;DHT22;10957;50.968;6.828;2023-06-14T12:50:11;25.00;1.00
21590;DHT22;10957;50.968;6.828;2023-06-14T12:55:13;24.50;1.00
21590;DHT22;10957;50.968;6.828;2023-06-14T13:00:16;25.50;1.00
21590;DHT22;10957;50.968;6.828;2023-06-14T13:05:18;25.80;1.00
21590;DHT22;10957;50.968;6.828;2023-06-14T13:10:19;25.30;1.00
21590;DHT22;10957;50.968;6.828;2023-06-14T13:15:21;25.40;1.00
21590;DHT22;10957;50.968;6.828;2023-06-14T13:20:23;25.10;1.00
21590;DHT22;10957;50.968;6.828;2023-06-14T13:25:24;25.40;1.00
21590;DHT22;10957;50.968;6.828;2023-06-14T13:30:27;26.00;1.00
21590;DHT22;10957;50.968;6.828;2023-06-14T13:35:29;25.40;1.00
21590;DHT22;10957;50.968;6.828;2023-06-14T13:40:30;26.30;1.00
21590;DHT22;10957;50.968;6.828;2023-06-14T13:45:32;26.60;1.00
21590;DHT22;10957;50.968;6.828;2023-06-14T13:50:33;26.00;1.00
21590;DHT22;10957;50.968;6.828;2023-06-14T13:55:34;25.90;1.00
21590;DHT22;10957;50.968;6.828;2023-06-14T14:00:35;26.30;1.00
21590;DHT22;10957;50.968;6.828;2023-06-14T14:05:41;26.10;1.00
21590;DHT22;10957;50.968;6.828;2023-06-14T14:10:42;26.40;1.00
21590;DHT22;10957;50.968;6.828;2023-06-14T14:15:44;26.70;1.00
21590;DHT22;10957;50.968;6.828;2023-06-14T14:20:45;25.80;1.00
21590;DHT22;10957;50.968;6.828;2023-06-14T14:25:47;26.00;1.00
21590;DHT22;10957;50.968;6.828;2023-06-14T14:30:48;25.50;1.00
21590;DHT22;10957;50.968;6.828;2023-06-14T14:35:50;26.00;1.00
21590;DHT22;10957;50.968;6.828;2023-06-14T14:40:51;26.40;1.00
21590;DHT22;10957;50.968;6.828;2023-06-14T14:45:52;25.90;1.00
21590;DHT22;10957;50.968;6.828;2023-06-14T14:50:54;25.40;1.00
21590;DHT22;10957;50.968;6.828;2023-06-14T14:55:56;26.20;1.00
21590;DHT22;10957;50.968;6.828;2023-06-14T15:00:57;26.10;1.00
21590;DHT22;10957;50.968;6.828;2023-06-14T15:05:59;26.30;1.00
21590;DHT22;10957;50.968;6.828;2023-06-14T15:11:00;26.70;1.00
21590;DHT22;10957;50.968;6.828;2023-06-14T15:16:03;26.00;1.00
21590;DHT22;10957;50.968;6.828;2023-06-14T15:21:04;25.90;1.00
21590;DHT22;10957;50.968;6.828;2023-06-14T15:26:05;26.00;1.00
21590;DHT22;10957;50.968;6.828;2023-06-14T15:31:06;26.40;1.00
21590;DHT22;10957;50.968;6.828;2023-06-14T15:36:09;26.40;1.00
21590;DHT22;10957;50.968;6.828;2023-06-14T15:41:10;26.20;1.00
21590;DHT22;10957;50.968;6.828;2023-06-14T15:46:12;25.60;1.00
21590;DHT22;10957;50.968;6.828;2023-06-14T15:51:13;26.30;1.00
21590;DHT22;10957;50.968;6.828;2023-06-14T15:56:14;26.80;1.00
21590;DHT22;10957;50.968;6.828;2023-06-14T16:01:15;26.50;1.00
21590;DHT22;10957;50.968;6.828;2023-06-14T16:06:17;26.90;1.00
21590;DHT22;10957;50.968;6.828;2023-06-14T16:11:18;26.20;1.00
21590;DHT22;10957;50.968;6.828;2023-06-14T16:16:20;25.60;1.00
21590;DHT22;10957;50.968;6.828;2023-06-14T16:21:21;25.40;1.00
21590;DHT22;10957;50.968;6.828;2023-06-14T16:26:23;25.80;1.00
21590;DHT22;10957;50.968;6.828;2023-06-14T16:31:24;25.90;1.00
21590;DHT22;10957;50.968;6.828;2023-06-14T16:36:26;25.80;1.00
21590;DHT22;10957;50.968;6.828;2023-06-14T16:41:30;26.10;1.00
21590;DHT22;10957;50.968;6.828;2023-06-14T16:46:33;26.00;1.00
21590;DHT22;10957;50.968;6.828;2023-06-14T16:51:34;25.70;1.00
21590;DHT22;10957;50.968;6.828;2023-06-14T16:56:36;25.60;1.00
21590;DHT22;10957;50.968;6.828;2023-06-14T17:01:38;25.70;1.00
21590;DHT22;10957;50.968;6.828;2023-06-14T17:06:39;26.00;1.00
21590;DHT22;10957;50.968;6.828;2023-06-14T17:11:41;25.90;1.00
21590;DHT22;10957;50.968;6.828;2023-06-14T17:16:42;25.60;1.00
21590;DHT22;10957;50.968;6.828;2023-06-14T17:21:43;25.20;1.00
21590;DHT22;10957;50.968;6.828;2023-06-14T17:26:50;25.00;1.00
21590;DHT22;10957;50.968;6.828;2023-06-14T17:31:51;24.40;1.00
21590;DHT22;10957;50.968;6.828;2023-06-14T17:36:52;24.20;1.00
21590;DHT22;10957;50.968;6.828;2023-06-14T17:41:54;24.40;1.00
21590;DHT22;10957;50.968;6.828;2023-06-14T17:46:56;24.60;1.00
21590;DHT22;10957;50.968;6.828;2023-06-14T17:51:57;24.80;1.00
21590;DHT22;10957;50.968;6.828;2023-06-14T17:56:58;24.90;1.00
21590;DHT22;10957;50.968;6.828;2023-06-14T18:02:00;25.00;1.00
21590;DHT22;10957;50.968;6.828;2023-06-14T18:07:02;24.90;1.00
21590;DHT22;10957;50.968;6.828;2023-06-14T18:12:04;24.80;1.00
21590;DHT22;10957;50.968;6.828;2023-06-14T18:17:05;24.70;1.00
21590;DHT22;10957;50.968;6.828;2023-06-14T18:22:06;24.50;1.00
21590;DHT22;10957;50.968;6.828;2023-06-14T18:27:08;24.30;1.00
21590;DHT22;10957;50.968;6.828;2023-06-14T18:32:12;24.10;1.00
21590;DHT22;10957;50.968;6.828;2023-06-14T18:37:13;24.00;1.00
21590;DHT22;10957;50.968;6.828;2023-06-14T18:42:14;23.70;1.00
21590;DHT22;10957;50.968;6.828;2023-06-14T18:47:16;23.70;1.00
21590;DHT22;10957;50.968;6.828;2023-06-14T18:52:17;23.60;1.00
21590;DHT22;10957;50.968;6.828;2023-06-14T18:57:18;23.50;1.00
21590;DHT22;10957;50.968;6.828;2023-06-14T19:02:22;23.40;1.00
21590;DHT22;10957;50.968;6.828;2023-06-14T19:07:23;23.30;1.00
21590;DHT22;10957;50.968;6.828;2023-06-14T19:12:24;23.10;1.00
21590;DHT22;10957;50.968;6.828;2023-06-14T19:17:26;22.90;1.00
21590;DHT22;10957;50.968;6.828;2023-06-14T19:22:28;22.70;1.00
21590;DHT22;10957;50.968;6.828;2023-06-14T19:27:29;22.60;1.00
21590;DHT22;10957;50.968;6.828;2023-06-14T19:32:33;22.50;1.00
21590;DHT22;10957;50.968;6.828;2023-06-14T19:37:36;22.20;1.00
21590;DHT22;10957;50.968;6.828;2023-06-14T19:42:38;22.00;1.00
21590;DHT22;10957;50.968;6.828;2023-06-14T19:47:40;21.80;1.00
21590;DHT22;10957;50.968;6.828;2023-06-14T19:52:42;21.70;1.00
21590;DHT22;10957;50.968;6.828;2023-06-14T19:57:43;21.70;1.00
21590;DHT22;10957;50.968;6.828;2023-06-14T20:02:45;21.60;1.00
21590;DHT22;10957;50.968;6.828;2023-06-14T20:07:46;21.50;1.00
21590;DHT22;10957;50.968;6.828;2023-06-14T20:12:47;21.30;1.00
21590;DHT22;10957;50.968;6.828;2023-06-14T20:17:48;21.40;1.00
21590;DHT22;10957;50.968;6.828;2023-06-14T20:22:50;21.40;1.00
21590;DHT22;10957;50.968;6.828;2023-06-14T20:27:51;21.30;1.00
21590;DHT22;10957;50.968;6.828;2023-06-14T20:32:52;21.10;1.00
21590;DHT22;10957;50.968;6.828;2023-06-14T20:37:53;21.00;1.00
21590;DHT22;10957;50.968;6.828;2023-06-14T20:42:55;20.90;1.00
21590;DHT22;10957;50.968;6.828;2023-06-14T20:47:58;20.80;1.00
21590;DHT22;10957;50.968;6.828;2023-06-14T20:52:59;20.60;1.00
21590;DHT22;10957;50.968;6.828;2023-06-14T20:58:01;20.40;1.00
21590;DHT22;10957;50.968;6.828;2023-06-14T21:03:02;20.10;1.00
21590;DHT22;10957;50.968;6.828;2023-06-14T21:08:04;20.00;1.00
21590;DHT22;10957;50.968;6.828;2023-06-14T21:13:05;19.80;1.00
21590;DHT22;10957;50.968;6.828;2023-06-14T21:18:07;19.60;1.00
21590;DHT22;10957;50.968;6.828;2023-06-14T21:23:08;19.60;1.00
21590;DHT22;10957;50.968;6.828;2023-06-14T21:28:10;19.50;1.00
21590;DHT22;10957;50.968;6.828;2023-06-14T21:33:12;19.60;1.00
21590;DHT22;10957;50.968;6.828;2023-06-14T21:38:13;19.50;1.00
21590;DHT22;10957;50.968;6.828;2023-06-14T21:43:14;19.20;1.00
21590;DHT22;10957;50.968;6.828;2023-06-14T21:48:15;19.30;1.00
21590;DHT22;10957;50.968;6.828;2023-06-14T21:53:17;19.30;1.00
21590;DHT22;10957;50.968;6.828;2023-06-14T21:58:18;19.30;1.00
21590;DHT22;10957;50.968;6.828;2023-06-14T22:03:19;19.20;1.00
21590;DHT22;10957;50.968;6.828;2023-06-14T22:08:21;19.20;1.00
21590;DHT22;10957;50.968;6.828;2023-06-14T22:13:22;19.10;1.00
21590;DHT22;10957;50.968;6.828;2023-06-14T22:18:24;19.00;1.00
21590;DHT22;10957;50.968;6.828;2023-06-14T22:23:26;18.70;1.00
21590;DHT22;10957;50.968;6.828;2023-06-14T22:28:37;18.50;1.00
21590;DHT22;10957;50.968;6.828;2023-06-14T22:33:48;18.30;1.00
21590;DHT22;10957;50.968;6.828;2023-06-14T22:38:52;18.20;1.00
21590;DHT22;10957;50.968;6.828;2023-06-14T22:43:53;18.50;1.00
21590;DHT22;10957;50.968;6.828;2023-06-14T22:48:54;18.40;1.00
21590;DHT22;10957;50.968;6.828;2023-06-14T22:53:55;18.20;1.00
21590;DHT22;10957;50.968;6.828;2023-06-14T22:58:57;18.20;1.00
21590;DHT22;10957;50.968;6.828;2023-06-14T23:04:03;18.20;1.00
21590;DHT22;10957;50.968;6.828;2023-06-14T23:09:04;18.20;1.00
21590;DHT22;10957;50.968;6.828;2023-06-14T23:14:05;18.10;1.00
21590;DHT22;10957;50.968;6.828;2023-06-14T23:19:07;18.10;1.00
21590;DHT22;10957;50.968;6.828;2023-06-14T23:24:09;17.90;1.00
21590;DHT22;10957;50.968;6.828;2023-06-14T23:29:11;17.70;1.00
21590;DHT22;10957;50.968;6.828;2023-06-14T23:34:23;17.50;1.00
21590;DHT22;10957;50.968;6.828;2023-06-14T23:39:27;17.40;1.00
21590;DHT22;10957;50.968;6.828;2023-06-14T23:44:28;17.20;1.00
21590;DHT22;10957;50.968;6.828;2023-06-14T23:49:37;16.90;1.00
21590;DHT22;10957;50.968;6.828;2023-06-14T23:54:39;16.70;1.00
21590;DHT22;10957;50.968;6.828;2023-06-14T23:59:40;16.60;1.00
